Aviation Digital Data Service (ADDS)

Output produced by METARs form (0149 UTC 25 June 2017)
found at http://www.aviationweather.gov/adds/metars/
 
KATL 250131Z 2502/2606 27005KT P6SM VCSH SCT040 BKN200 
     TEMPO 2502/2504 4SM -TSRA BKN030CB 
     FM250400 32008KT P6SM SCT040 BKN250 
     FM251400 32010KT P6SM FEW035 SCT100 
     FM251800 32014G21KT P6SM BKN150 
     FM260000 33012KT P6SM SCT150